Terminal Aerodrome Forecast
Issued by NWS Pocatello, ID

Home | Current Version | Previous Version | Text Only | Print | Product List | Glossary On
Versions: 1 2 3 4 5 6 7 8 9 10 11 12 13
000
FTUS45 KPIH 010520
TAFBYI
TAF
KBYI 010520Z 0106/0206 VRB06KT P6SM VCSH BKN080
     FM010800 07008KT P6SM FEW080
     FM011500 13014G24KT P6SM SKC
     FM020200 10009KT P6SM SKC=

USA.gov is the U.S. government's official web portal to all federal, state and local government web resources and services.